| time (UTC) | temp F | wind direction | speed knots | gust knots | rain 1hr in | rain 24hr in | rain mn in | humidity % | barometer mb |
| 20260507083042 | 67 | 360 | 0.0 | 3.5 | 0.00 | 0.00 | 0.00 | 52 | 1011.9 |
| 20260507081539 | 65 | 192 | 0.0 | 5.2 | 0.00 | 0.00 | 0.00 | 53 | 1011.9 |
| 20260507080036 | 64 | 321 | 0.0 | 2.6 | 0.00 | 0.00 | 0.00 | 55 | 1011.8 |
| 20260507074535 | 63 | 336 | 0.0 | 4.3 | 0.00 | 0.00 | 0.00 | 56 | 1011.7 |
| 20260507073033 | 63 | 191 | 0.0 | 2.6 | 0.00 | 0.00 | 0.00 | 57 | 1011.7 |
| 20260507071536 | 62 | 178 | 0.0 | 6.1 | 0.00 | 0.00 | 0.00 | 58 | 1011.6 |
| 20260507070030 | 62 | 313 | 0.0 | 2.6 | 0.00 | 0.00 | 0.00 | 58 | 1011.5 |
| 20260507064533 | 62 | 345 | 0.0 | 4.3 | 0.00 | 0.00 | 0.00 | 59 | 1011.5 |
| 20260507063029 | 61 | 239 | 0.0 | 3.5 | 0.00 | 0.00 | 0.00 | 61 | 1011.4 |
| 20260507061535 | 60 | 216 | 0.0 | 3.5 | 0.00 | 0.00 | 0.00 | 62 | 1011.4 |
| 20260507060035 | 60 | 252 | 0.0 | 5.2 | 0.00 | 0.00 | 0.00 | 65 | 1011.3 |
| 20260507054535 | 58 | 241 | 0.0 | 2.6 | 0.00 | 0.00 | 0.00 | 68 | 1011.2 |
| 20260507053022 | 57 | 336 | 0.0 | 1.7 | 0.00 | 0.00 | 0.00 | 71 | 1011.0 |
| 20260507051519 | 57 | 310 | 0.0 | 2.6 | 0.00 | 0.00 | 0.00 | 71 | 1011.0 |
| 20260507050036 | 57 | 275 | 0.0 | 0.0 | 0.00 | 0.00 | 0.00 | 73 | 1010.8 |
| 20260507044520 | 56 | 219 | 0.0 | 0.9 | 0.00 | 0.00 | 0.00 | 74 | 1010.7 |
| 20260507043010 | 56 | 214 | 0.0 | 1.7 | 0.00 | 0.00 | 0.00 | 74 | 1010.5 |
| 20260507041508 | 56 | 281 | 0.0 | 0.9 | 0.00 | 0.00 | 0.00 | 74 | 1010.2 |
| 20260507040006 | 56 | 277 | 0.0 | 0.0 | 0.00 | 0.00 | 0.00 | 74 | 1010.1 |
| 20260507034505 | 57 | 219 | 0.0 | 0.9 | 0.00 | 0.00 | 0.00 | 73 | 1010.0 |
| 20260507033001 | 57 | 232 | 0.0 | 2.6 | 0.00 | 0.00 | 0.00 | 73 | 1009.9 |
| 20260507031558 | 57 | 107 | 0.0 | 2.6 | 0.00 | 0.00 | 0.00 | 72 | 1009.7 |
| 20260507030056 | 57 | 216 | 0.0 | 2.6 | 0.00 | 0.00 | 0.00 | 72 | 1009.5 |
| 20260507024554 | 58 | 355 | 0.0 | 1.7 | 0.00 | 0.00 | 0.00 | 72 | 1009.4 |
| 20260507023051 | 58 | 206 | 0.0 | 0.9 | 0.00 | 0.00 | 0.00 | 72 | 1009.1 |
| 20260507021558 | 58 | 248 | 0.0 | 3.5 | 0.00 | 0.00 | 0.00 | 72 | 1009.1 |
| 20260507020048 | 58 | 277 | 0.0 | 3.5 | 0.00 | 0.00 | 0.00 | 71 | 1009.0 |
| 20260507014547 | 58 | 207 | 0.0 | 1.7 | 0.00 | 0.00 | 0.00 | 72 | 1008.8 |
| 20260507013044 | 59 | 164 | 0.0 | 4.3 | 0.00 | 0.00 | 0.00 | 71 | 1008.7 |
| 20260507011545 | 59 | 109 | 0.0 | 2.6 | 0.00 | 0.00 | 0.00 | 71 | 1008.5 |
| 20260507010045 | 59 | 182 | 0.0 | 5.2 | 0.00 | 0.00 | 0.00 | 71 | 1008.5 |
| 20260507004537 | 60 | 238 | 0.0 | 3.5 | 0.00 | 0.00 | 0.00 | 70 | 1008.4 |
| 20260507003035 | 61 | 213 | 0.0 | 4.3 | 0.00 | 0.00 | 0.00 | 69 | 1008.3 |
| 20260507001534 | 61 | 282 | 0.0 | 1.7 | 0.00 | 0.00 | 0.00 | 68 | 1008.2 |
| 20260507000034 | 62 | 332 | 0.0 | 0.0 | 0.00 | 0.00 | 0.00 | 67 | 1007.8 |
| 20260506234527 | 62 | 332 | 0.0 | 0.0 | 0.00 | 0.00 | 0.00 | 68 | 1007.7 |
| 20260506233027 | 62 | 332 | 0.0 | 3.5 | 0.00 | 0.00 | 0.00 | 67 | 1007.5 |
| 20260506231527 | 63 | 336 | 0.0 | 0.9 | 0.00 | 0.00 | 0.00 | 68 | 1007.5 |
| 20260506230021 | 63 | 227 | 0.9 | 4.3 | 0.00 | 0.00 | 0.00 | 67 | 1007.3 |
| 20260506224517 | 63 | 351 | 0.0 | 1.7 | 0.00 | 0.00 | 0.00 | 64 | 1006.7 |
| 20260506223017 | 64 | 309 | 0.0 | 4.3 | 0.00 | 0.00 | 0.00 | 62 | 1006.7 |
| 20260506221513 | 64 | 242 | 0.0 | 1.7 | 0.00 | 0.00 | 0.00 | 59 | 1006.4 |
| 20260506220017 | 65 | 315 | 0.0 | 3.5 | 0.00 | 0.00 | 0.00 | 58 | 1005.9 |
| 20260506214509 | 65 | 313 | 0.0 | 5.2 | 0.00 | 0.00 | 0.00 | 57 | 1005.5 |
| 20260506213007 | 66 | 334 | 0.9 | 7.8 | 0.00 | 0.00 | 0.00 | 56 | 1005.2 |
| 20260506211506 | 67 | 355 | 1.7 | 9.6 | 0.00 | 0.00 | 0.00 | 54 | 1004.8 |
| 20260506210006 | 67 | 279 | 0.9 | 4.3 | 0.00 | 0.00 | 0.00 | 50 | 1004.5 |
| 20260506204505 | 67 | 207 | 0.0 | 0.9 | 0.00 | 0.00 | 0.00 | 51 | 1004.2 |
| 20260506203016 | 68 | 311 | 0.0 | 0.0 | 0.00 | 0.00 | 0.00 | 51 | 1004.0 |
| 20260506201508 | 68 | 317 | 0.0 | 0.0 | 0.00 | 0.00 | 0.00 | 50 | 1003.8 |
| 20260506200005 | 69 | 317 | 0.0 | 0.0 | 0.00 | 0.00 | 0.00 | 50 | 1003.6 |
| 20260506194505 | 69 | 237 | 0.0 | 0.0 | 0.00 | 0.00 | 0.00 | 49 | 1003.4 |
| 20260506193004 | 70 | 232 | 0.0 | 0.9 | 0.00 | 0.00 | 0.00 | 48 | 1003.1 |
| 20260506191506 | 71 | 111 | 0.0 | 0.9 | 0.00 | 0.00 | 0.00 | 46 | 1002.9 |
| 20260506190006 | 71 | 104 | 0.0 | 2.6 | 0.00 | 0.00 | 0.00 | 45 | 1002.5 |
| 20260506184502 | 72 | 166 | 0.0 | 1.7 | 0.00 | 0.00 | 0.00 | 45 | 1002.4 |
| 20260506183002 | 72 | 254 | 0.0 | 2.6 | 0.00 | 0.00 | 0.00 | 44 | 1002.3 |
| 20260506181502 | 73 | 5 | 0.0 | 2.6 | 0.00 | 0.00 | 0.00 | 43 | 1002.0 |
| 20260506180003 | 74 | 82 | 0.0 | 1.7 | 0.00 | 0.00 | 0.00 | 42 | 1001.7 |
| 20260506174604 | 75 | 271 | 0.0 | 3.5 | 0.00 | 0.00 | 0.00 | 41 | 1001.7 |
| 20260506173115 | 75 | 211 | 0.0 | 3.5 | 0.00 | 0.00 | 0.00 | 39 | 1001.5 |
| 20260506171601 | 76 | 250 | 0.9 | 6.1 | 0.00 | 0.00 | 0.00 | 38 | 1001.6 |
| 20260506170100 | 77 | 178 | 0.0 | 6.1 | 0.00 | 0.00 | 0.00 | 36 | 1001.6 |
| 20260506164558 | 77 | 216 | 0.0 | 4.3 | 0.00 | 0.00 | 0.00 | 35 | 1001.7 |
| 20260506163057 | 78 | 206 | 0.0 | 5.2 | 0.00 | 0.00 | 0.00 | 35 | 1001.8 |
| 20260506161604 | 79 | 188 | 0.0 | 3.5 | 0.00 | 0.00 | 0.00 | 34 | 1001.8 |
| 20260506160057 | 79 | 225 | 0.0 | 5.2 | 0.00 | 0.00 | 0.00 | 33 | 1001.8 |
| 20260506154555 | 80 | 226 | 0.9 | 3.5 | 0.00 | 0.00 | 0.00 | 33 | 1001.9 |
| 20260506153052 | 81 | 336 | 0.0 | 2.6 | 0.00 | 0.00 | 0.00 | 34 | 1002.0 |
| 20260506151605 | 82 | 221 | 0.0 | 2.6 | 0.00 | 0.00 | 0.00 | 33 | 1002.0 |
| 20260506150050 | 81 | 288 | 0.0 | 2.6 | 0.00 | 0.00 | 0.00 | 33 | 1002.0 |
| 20260506144548 | 81 | 281 | 0.0 | 4.3 | 0.00 | 0.00 | 0.00 | 33 | 1002.2 |
| 20260506143052 | 81 | 319 | 0.0 | 1.7 | 0.00 | 0.00 | 0.00 | 32 | 1002.3 |
| 20260506141543 | 80 | 152 | 0.0 | 2.6 | 0.00 | 0.00 | 0.00 | 37 | 1002.2 |
| 20260506140041 | 78 | 96 | 1.7 | 7.8 | 0.00 | 0.00 | 0.00 | 40 | 1002.5 |
| 20260506134538 | 77 | 67 | 0.9 | 4.3 | 0.00 | 0.00 | 0.00 | 41 | 1002.6 |
| 20260506133040 | 77 | 31 | 0.9 | 6.1 | 0.00 | 0.00 | 0.00 | 40 | 1002.8 |
| 20260506131536 | 78 | 179 | 1.7 | 8.7 | 0.00 | 0.00 | 0.00 | 38 | 1003.2 |
| 20260506130035 | 78 | 75 | 2.6 | 8.7 | 0.00 | 0.00 | 0.00 | 39 | 1003.4 |
| 20260506124531 | 78 | 171 | 2.6 | 7.8 | 0.00 | 0.00 | 0.00 | 39 | 1003.8 |
| 20260506123031 | 78 | 91 | 3.5 | 9.6 | 0.00 | 0.00 | 0.00 | 39 | 1003.9 |
| 20260506121529 | 79 | 77 | 3.5 | 9.6 | 0.00 | 0.00 | 0.00 | 39 | 1004.0 |
| 20260506120030 | 78 | 92 | 2.6 | 8.7 | 0.00 | 0.00 | 0.00 | 39 | 1004.3 |
| 20260506114535 | 78 | 97 | 1.7 | 6.1 | 0.00 | 0.00 | 0.00 | 42 | 1004.4 |
| 20260506113022 | 77 | 93 | 1.7 | 8.7 | 0.00 | 0.00 | 0.00 | 43 | 1004.6 |
| 20260506111520 | 76 | 82 | 2.6 | 9.6 | 0.00 | 0.00 | 0.00 | 43 | 1005.0 |
| 20260506110021 | 76 | 171 | 0.9 | 7.0 | 0.00 | 0.00 | 0.00 | 44 | 1005.0 |
| 20260506104520 | 75 | 103 | 0.9 | 6.1 | 0.00 | 0.00 | 0.00 | 44 | 1005.3 |
| 20260506103019 | 76 | 187 | 0.9 | 5.2 | 0.00 | 0.00 | 0.00 | 44 | 1005.7 |
| 20260506101532 | 76 | 173 | 0.9 | 8.7 | 0.00 | 0.00 | 0.00 | 44 | 1005.9 |
| 20260506100015 | 75 | 78 | 1.7 | 7.0 | 0.00 | 0.00 | 0.00 | 45 | 1006.0 |
| 20260506094517 | 75 | 137 | 1.7 | 6.1 | 0.00 | 0.00 | 0.00 | 45 | 1006.2 |
| 20260506093014 | 74 | 148 | 0.9 | 3.5 | 0.00 | 0.00 | 0.00 | 45 | 1006.5 |
| 20260506091517 | 74 | 72 | 0.9 | 7.8 | 0.00 | 0.00 | 0.00 | 43 | 1006.5 |
| 20260506090010 | 75 | 117 | 0.9 | 3.5 | 0.00 | 0.00 | 0.00 | 48 | 1006.6 |
| 20260506084516 | 74 | 130 | 0.0 | 4.3 | 0.00 | 0.00 | 0.00 | 49 | 1006.7 |